sensor_id;sensor_type;location;lat;lon;timestamp;temperature;humidity
10245;DHT22;5167;52.164;10.530;2023-05-10T00:01:52;16.10;5.00
10245;DHT22;5167;52.164;10.530;2023-05-10T00:04:18;16.10;5.00
10245;DHT22;5167;52.164;10.530;2023-05-10T00:06:43;16.00;5.00
10245;DHT22;5167;52.164;10.530;2023-05-10T00:09:09;15.90;5.00
10245;DHT22;5167;52.164;10.530;2023-05-10T00:11:34;16.00;5.00
10245;DHT22;5167;52.164;10.530;2023-05-10T00:14:00;15.90;5.00
10245;DHT22;5167;52.164;10.530;2023-05-10T00:16:25;15.90;5.00
10245;DHT22;5167;52.164;10.530;2023-05-10T00:18:51;15.80;5.00
10245;DHT22;5167;52.164;10.530;2023-05-10T00:21:16;15.80;5.00
10245;DHT22;5167;52.164;10.530;2023-05-10T00:23:41;15.80;5.00
10245;DHT22;5167;52.164;10.530;2023-05-10T00:26:07;15.70;5.00
10245;DHT22;5167;52.164;10.530;2023-05-10T00:28:32;15.70;5.00
10245;DHT22;5167;52.164;10.530;2023-05-10T00:30:58;15.60;5.00
10245;DHT22;5167;52.164;10.530;2023-05-10T00:33:23;15.60;5.00
10245;DHT22;5167;52.164;10.530;2023-05-10T00:35:49;15.50;5.00
10245;DHT22;5167;52.164;10.530;2023-05-10T00:38:14;15.70;5.00
10245;DHT22;5167;52.164;10.530;2023-05-10T00:40:40;15.70;5.00
10245;DHT22;5167;52.164;10.530;2023-05-10T00:43:05;15.40;5.00
10245;DHT22;5167;52.164;10.530;2023-05-10T00:45:32;15.40;5.00
10245;DHT22;5167;52.164;10.530;2023-05-10T00:48:00;15.30;5.00
10245;DHT22;5167;52.164;10.530;2023-05-10T00:50:26;15.30;5.00
10245;DHT22;5167;52.164;10.530;2023-05-10T00:52:51;15.20;5.00
10245;DHT22;5167;52.164;10.530;2023-05-10T00:55:17;15.10;5.00
10245;DHT22;5167;52.164;10.530;2023-05-10T00:57:43;15.10;5.00
10245;DHT22;5167;52.164;10.530;2023-05-10T01:00:09;15.00;5.00
10245;DHT22;5167;52.164;10.530;2023-05-10T01:02:36;15.00;5.00
10245;DHT22;5167;52.164;10.530;2023-05-10T01:05:02;15.20;5.00
10245;DHT22;5167;52.164;10.530;2023-05-10T01:39:49;14.70;5.00
10245;DHT22;5167;52.164;10.530;2023-05-10T01:42:25;14.60;5.00
10245;DHT22;5167;52.164;10.530;2023-05-10T01:48:09;14.60;5.00
10245;DHT22;5167;52.164;10.530;2023-05-10T01:50:37;14.50;5.00
10245;DHT22;5167;52.164;10.530;2023-05-10T01:53:06;14.50;5.00
10245;DHT22;5167;52.164;10.530;2023-05-10T01:55:35;14.60;5.00
10245;DHT22;5167;52.164;10.530;2023-05-10T01:58:09;14.60;5.00
10245;DHT22;5167;52.164;10.530;2023-05-10T02:00:35;14.50;5.00
10245;DHT22;5167;52.164;10.530;2023-05-10T02:03:05;14.50;5.00
10245;DHT22;5167;52.164;10.530;2023-05-10T02:05:32;14.50;5.00
10245;DHT22;5167;52.164;10.530;2023-05-10T02:07:59;14.50;5.00
10245;DHT22;5167;52.164;10.530;2023-05-10T02:10:27;14.60;5.00
10245;DHT22;5167;52.164;10.530;2023-05-10T02:12:55;14.50;5.00
10245;DHT22;5167;52.164;10.530;2023-05-10T02:15:24;14.50;5.00
10245;DHT22;5167;52.164;10.530;2023-05-10T02:17:52;14.50;5.00
10245;DHT22;5167;52.164;10.530;2023-05-10T02:20:20;14.50;5.00
10245;DHT22;5167;52.164;10.530;2023-05-10T02:22:48;14.50;5.00
10245;DHT22;5167;52.164;10.530;2023-05-10T02:25:15;14.40;5.00
10245;DHT22;5167;52.164;10.530;2023-05-10T02:27:42;14.40;5.00
10245;DHT22;5167;52.164;10.530;2023-05-10T02:30:10;14.40;5.00
10245;DHT22;5167;52.164;10.530;2023-05-10T02:32:36;14.40;5.00
10245;DHT22;5167;52.164;10.530;2023-05-10T02:35:04;14.30;5.00
10245;DHT22;5167;52.164;10.530;2023-05-10T02:37:29;14.30;5.00
10245;DHT22;5167;52.164;10.530;2023-05-10T02:39:56;14.30;5.00
10245;DHT22;5167;52.164;10.530;2023-05-10T02:42:27;14.20;5.00
10245;DHT22;5167;52.164;10.530;2023-05-10T02:45:01;14.30;5.00
10245;DHT22;5167;52.164;10.530;2023-05-10T02:47:28;14.20;5.00
10245;DHT22;5167;52.164;10.530;2023-05-10T02:49:54;14.10;5.00
10245;DHT22;5167;52.164;10.530;2023-05-10T02:52:25;14.20;5.00
10245;DHT22;5167;52.164;10.530;2023-05-10T02:54:55;14.20;5.00
10245;DHT22;5167;52.164;10.530;2023-05-10T02:57:26;14.10;5.00
10245;DHT22;5167;52.164;10.530;2023-05-10T02:59:53;14.10;5.00
10245;DHT22;5167;52.164;10.530;2023-05-10T03:02:18;14.10;5.00
10245;DHT22;5167;52.164;10.530;2023-05-10T03:04:45;14.10;5.00
10245;DHT22;5167;52.164;10.530;2023-05-10T03:07:10;14.20;5.00
10245;DHT22;5167;52.164;10.530;2023-05-10T03:09:36;14.30;5.00
10245;DHT22;5167;52.164;10.530;2023-05-10T03:12:29;14.20;5.00
10245;DHT22;5167;52.164;10.530;2023-05-10T03:17:55;14.00;5.00
10245;DHT22;5167;52.164;10.530;2023-05-10T03:20:29;14.00;5.00
10245;DHT22;5167;52.164;10.530;2023-05-10T03:23:11;14.00;5.00
10245;DHT22;5167;52.164;10.530;2023-05-10T03:25:37;14.00;5.00
10245;DHT22;5167;52.164;10.530;2023-05-10T03:28:05;14.00;5.00
10245;DHT22;5167;52.164;10.530;2023-05-10T03:30:31;14.00;5.00
10245;DHT22;5167;52.164;10.530;2023-05-10T03:32:57;13.90;5.00
10245;DHT22;5167;52.164;10.530;2023-05-10T03:35:23;13.90;5.00
10245;DHT22;5167;52.164;10.530;2023-05-10T03:37:49;14.10;5.00
10245;DHT22;5167;52.164;10.530;2023-05-10T03:40:14;13.90;5.00
10245;DHT22;5167;52.164;10.530;2023-05-10T03:42:40;13.70;5.00
10245;DHT22;5167;52.164;10.530;2023-05-10T03:45:06;13.90;5.00
10245;DHT22;5167;52.164;10.530;2023-05-10T03:47:32;13.90;5.00
10245;DHT22;5167;52.164;10.530;2023-05-10T03:49:57;14.00;5.00
10245;DHT22;5167;52.164;10.530;2023-05-10T03:52:23;13.90;5.00
10245;DHT22;5167;52.164;10.530;2023-05-10T03:54:48;13.90;5.00
10245;DHT22;5167;52.164;10.530;2023-05-10T03:57:14;14.10;5.00
10245;DHT22;5167;52.164;10.530;2023-05-10T03:59:39;13.90;5.00
10245;DHT22;5167;52.164;10.530;2023-05-10T04:02:05;13.90;5.00
10245;DHT22;5167;52.164;10.530;2023-05-10T04:04:30;13.90;5.00
10245;DHT22;5167;52.164;10.530;2023-05-10T04:06:56;14.00;5.00
10245;DHT22;5167;52.164;10.530;2023-05-10T04:09:21;13.90;5.00
10245;DHT22;5167;52.164;10.530;2023-05-10T04:11:47;13.90;5.00
10245;DHT22;5167;52.164;10.530;2023-05-10T04:14:12;14.00;5.00
10245;DHT22;5167;52.164;10.530;2023-05-10T04:16:38;13.80;5.00
10245;DHT22;5167;52.164;10.530;2023-05-10T04:19:03;13.90;5.00
10245;DHT22;5167;52.164;10.530;2023-05-10T04:21:29;13.90;5.00
10245;DHT22;5167;52.164;10.530;2023-05-10T04:23:55;14.10;5.00
10245;DHT22;5167;52.164;10.530;2023-05-10T04:26:21;13.80;5.00
10245;DHT22;5167;52.164;10.530;2023-05-10T04:28:47;13.80;5.00
10245;DHT22;5167;52.164;10.530;2023-05-10T04:31:12;13.80;5.00
10245;DHT22;5167;52.164;10.530;2023-05-10T04:33:38;13.90;5.00
10245;DHT22;5167;52.164;10.530;2023-05-10T04:36:04;14.00;5.00
10245;DHT22;5167;52.164;10.530;2023-05-10T04:38:30;13.90;5.00
10245;DHT22;5167;52.164;10.530;2023-05-10T04:41:04;13.90;5.00
10245;DHT22;5167;52.164;10.530;2023-05-10T04:43:30;13.90;5.00
10245;DHT22;5167;52.164;10.530;2023-05-10T04:45:59;13.90;5.00
10245;DHT22;5167;52.164;10.530;2023-05-10T04:48:24;13.90;5.00
10245;DHT22;5167;52.164;10.530;2023-05-10T04:50:50;13.80;5.00
10245;DHT22;5167;52.164;10.530;2023-05-10T04:53:15;13.90;5.00
10245;DHT22;5167;52.164;10.530;2023-05-10T04:55:41;13.80;5.00
10245;DHT22;5167;52.164;10.530;2023-05-10T04:58:06;13.80;5.00
10245;DHT22;5167;52.164;10.530;2023-05-10T05:00:33;13.90;5.00
10245;DHT22;5167;52.164;10.530;2023-05-10T05:02:58;13.90;5.00
10245;DHT22;5167;52.164;10.530;2023-05-10T05:05:24;13.90;5.00
10245;DHT22;5167;52.164;10.530;2023-05-10T05:07:50;13.90;5.00
10245;DHT22;5167;52.164;10.530;2023-05-10T05:10:15;13.80;5.00
10245;DHT22;5167;52.164;10.530;2023-05-10T05:12:41;13.80;5.00
10245;DHT22;5167;52.164;10.530;2023-05-10T05:15:07;13.90;5.00
10245;DHT22;5167;52.164;10.530;2023-05-10T05:17:34;13.80;5.00
10245;DHT22;5167;52.164;10.530;2023-05-10T05:19:59;13.80;5.00
10245;DHT22;5167;52.164;10.530;2023-05-10T05:22:25;13.80;5.00
10245;DHT22;5167;52.164;10.530;2023-05-10T05:24:56;13.80;5.00
10245;DHT22;5167;52.164;10.530;2023-05-10T05:27:24;13.80;5.00
10245;DHT22;5167;52.164;10.530;2023-05-10T05:29:53;13.80;5.00
10245;DHT22;5167;52.164;10.530;2023-05-10T05:32:19;13.80;5.00
10245;DHT22;5167;52.164;10.530;2023-05-10T05:34:45;13.70;5.00
10245;DHT22;5167;52.164;10.530;2023-05-10T05:37:19;13.70;6.00
10245;DHT22;5167;52.164;10.530;2023-05-10T05:39:45;13.70;6.20
10245;DHT22;5167;52.164;10.530;2023-05-10T05:42:11;13.70;7.30
10245;DHT22;5167;52.164;10.530;2023-05-10T05:44:37;13.80;7.00
10245;DHT22;5167;52.164;10.530;2023-05-10T05:47:02;13.80;7.70
10245;DHT22;5167;52.164;10.530;2023-05-10T05:49:28;13.80;8.70
10245;DHT22;5167;52.164;10.530;2023-05-10T05:51:54;13.80;9.20
10245;DHT22;5167;52.164;10.530;2023-05-10T05:54:19;13.80;9.70
10245;DHT22;5167;52.164;10.530;2023-05-10T05:56:45;14.00;10.20
10245;DHT22;5167;52.164;10.530;2023-05-10T05:59:11;13.80;11.00
10245;DHT22;5167;52.164;10.530;2023-05-10T06:01:36;14.10;12.80
10245;DHT22;5167;52.164;10.530;2023-05-10T06:04:02;13.90;12.30
10245;DHT22;5167;52.164;10.530;2023-05-10T06:06:28;13.90;12.50
10245;DHT22;5167;52.164;10.530;2023-05-10T06:08:54;13.90;13.70
10245;DHT22;5167;52.164;10.530;2023-05-10T06:11:19;14.10;14.60
10245;DHT22;5167;52.164;10.530;2023-05-10T06:13:46;14.00;14.80
10245;DHT22;5167;52.164;10.530;2023-05-10T06:16:12;14.00;15.50
10245;DHT22;5167;52.164;10.530;2023-05-10T06:18:38;14.00;15.10
10245;DHT22;5167;52.164;10.530;2023-05-10T06:21:04;14.00;15.40
10245;DHT22;5167;52.164;10.530;2023-05-10T06:23:29;14.00;15.20
10245;DHT22;5167;52.164;10.530;2023-05-10T06:25:55;14.10;15.60
10245;DHT22;5167;52.164;10.530;2023-05-10T06:28:20;14.10;15.60
10245;DHT22;5167;52.164;10.530;2023-05-10T06:30:46;14.10;16.20
10245;DHT22;5167;52.164;10.530;2023-05-10T06:33:11;14.20;16.50
10245;DHT22;5167;52.164;10.530;2023-05-10T06:35:37;14.10;17.00
10245;DHT22;5167;52.164;10.530;2023-05-10T06:38:02;14.10;16.40
10245;DHT22;5167;52.164;10.530;2023-05-10T06:40:28;14.10;16.80
10245;DHT22;5167;52.164;10.530;2023-05-10T06:42:54;14.10;16.00
10245;DHT22;5167;52.164;10.530;2023-05-10T06:45:19;14.20;15.60
10245;DHT22;5167;52.164;10.530;2023-05-10T06:47:45;14.10;16.30
10245;DHT22;5167;52.164;10.530;2023-05-10T06:50:11;14.20;16.10
10245;DHT22;5167;52.164;10.530;2023-05-10T06:52:37;14.10;16.70
10245;DHT22;5167;52.164;10.530;2023-05-10T06:55:03;14.00;17.30
10245;DHT22;5167;52.164;10.530;2023-05-10T06:57:29;14.10;19.30
10245;DHT22;5167;52.164;10.530;2023-05-10T06:59:55;14.10;19.00
10245;DHT22;5167;52.164;10.530;2023-05-10T07:02:21;14.10;20.20
10245;DHT22;5167;52.164;10.530;2023-05-10T07:04:48;14.20;20.60
10245;DHT22;5167;52.164;10.530;2023-05-10T07:07:14;14.40;21.40
10245;DHT22;5167;52.164;10.530;2023-05-10T07:09:40;14.30;21.30
10245;DHT22;5167;52.164;10.530;2023-05-10T07:12:05;14.50;21.80
10245;DHT22;5167;52.164;10.530;2023-05-10T07:14:31;14.40;22.50
10245;DHT22;5167;52.164;10.530;2023-05-10T07:16:56;14.40;23.10
10245;DHT22;5167;52.164;10.530;2023-05-10T07:19:22;14.40;23.60
10245;DHT22;5167;52.164;10.530;2023-05-10T07:21:47;14.40;23.60
10245;DHT22;5167;52.164;10.530;2023-05-10T07:24:13;14.50;23.80
10245;DHT22;5167;52.164;10.530;2023-05-10T07:26:38;14.40;23.50
10245;DHT22;5167;52.164;10.530;2023-05-10T07:29:04;14.40;22.70
10245;DHT22;5167;52.164;10.530;2023-05-10T07:31:29;14.60;21.60
10245;DHT22;5167;52.164;10.530;2023-05-10T07:33:55;14.40;22.90
10245;DHT22;5167;52.164;10.530;2023-05-10T07:36:20;14.50;23.30
10245;DHT22;5167;52.164;10.530;2023-05-10T07:38:46;14.40;23.40
10245;DHT22;5167;52.164;10.530;2023-05-10T07:41:12;14.40;23.70
10245;DHT22;5167;52.164;10.530;2023-05-10T07:43:37;14.40;23.50
10245;DHT22;5167;52.164;10.530;2023-05-10T07:46:03;14.40;23.40
10245;DHT22;5167;52.164;10.530;2023-05-10T07:48:29;14.40;24.10
10245;DHT22;5167;52.164;10.530;2023-05-10T07:50:54;14.40;24.70
10245;DHT22;5167;52.164;10.530;2023-05-10T07:53:20;14.50;25.60
10245;DHT22;5167;52.164;10.530;2023-05-10T07:55:50;14.50;25.40
10245;DHT22;5167;52.164;10.530;2023-05-10T07:58:17;14.50;25.90
10245;DHT22;5167;52.164;10.530;2023-05-10T08:00:42;14.50;27.30
10245;DHT22;5167;52.164;10.530;2023-05-10T08:03:08;14.50;27.10
10245;DHT22;5167;52.164;10.530;2023-05-10T08:05:33;14.60;26.90
10245;DHT22;5167;52.164;10.530;2023-05-10T08:07:59;14.70;27.80
10245;DHT22;5167;52.164;10.530;2023-05-10T08:10:25;14.70;27.90
10245;DHT22;5167;52.164;10.530;2023-05-10T08:12:50;14.80;29.80
10245;DHT22;5167;52.164;10.530;2023-05-10T08:15:16;14.80;30.70
10245;DHT22;5167;52.164;10.530;2023-05-10T08:17:41;14.80;30.10
10245;DHT22;5167;52.164;10.530;2023-05-10T08:20:08;14.80;31.70
10245;DHT22;5167;52.164;10.530;2023-05-10T08:22:34;14.90;32.20
10245;DHT22;5167;52.164;10.530;2023-05-10T08:24:59;14.80;32.90
10245;DHT22;5167;52.164;10.530;2023-05-10T08:27:25;14.90;34.30
10245;DHT22;5167;52.164;10.530;2023-05-10T08:29:50;14.90;34.70
10245;DHT22;5167;52.164;10.530;2023-05-10T08:32:16;14.90;34.40
10245;DHT22;5167;52.164;10.530;2023-05-10T08:34:42;14.90;35.10
10245;DHT22;5167;52.164;10.530;2023-05-10T08:37:07;14.80;34.50
10245;DHT22;5167;52.164;10.530;2023-05-10T08:39:36;14.90;36.10
10245;DHT22;5167;52.164;10.530;2023-05-10T08:42:03;14.90;36.90
10245;DHT22;5167;52.164;10.530;2023-05-10T08:44:31;15.00;37.90
10245;DHT22;5167;52.164;10.530;2023-05-10T08:46:57;15.00;38.50
10245;DHT22;5167;52.164;10.530;2023-05-10T08:49:25;15.00;38.70
10245;DHT22;5167;52.164;10.530;2023-05-10T08:51:54;15.00;38.70
10245;DHT22;5167;52.164;10.530;2023-05-10T08:54:21;15.00;39.80
10245;DHT22;5167;52.164;10.530;2023-05-10T08:56:46;15.00;41.80
10245;DHT22;5167;52.164;10.530;2023-05-10T08:59:12;15.10;41.60
10245;DHT22;5167;52.164;10.530;2023-05-10T09:01:39;15.10;43.20
10245;DHT22;5167;52.164;10.530;2023-05-10T09:04:05;15.20;43.90
10245;DHT22;5167;52.164;10.530;2023-05-10T09:06:31;15.30;46.20
10245;DHT22;5167;52.164;10.530;2023-05-10T09:08:57;15.20;46.40
10245;DHT22;5167;52.164;10.530;2023-05-10T09:11:23;15.30;47.60
10245;DHT22;5167;52.164;10.530;2023-05-10T09:13:50;15.40;47.70
10245;DHT22;5167;52.164;10.530;2023-05-10T09:16:17;15.40;48.70
10245;DHT22;5167;52.164;10.530;2023-05-10T09:18:42;15.50;48.90
10245;DHT22;5167;52.164;10.530;2023-05-10T09:21:09;15.60;49.40
10245;DHT22;5167;52.164;10.530;2023-05-10T09:23:35;15.50;50.50
10245;DHT22;5167;52.164;10.530;2023-05-10T09:26:07;15.60;50.40
10245;DHT22;5167;52.164;10.530;2023-05-10T09:28:34;15.60;51.50
10245;DHT22;5167;52.164;10.530;2023-05-10T09:30:59;15.60;51.70
10245;DHT22;5167;52.164;10.530;2023-05-10T09:33:25;15.60;53.70
10245;DHT22;5167;52.164;10.530;2023-05-10T09:35:52;15.70;54.50
10245;DHT22;5167;52.164;10.530;2023-05-10T09:38:17;15.80;55.30
10245;DHT22;5167;52.164;10.530;2023-05-10T09:40:51;15.90;57.80
10245;DHT22;5167;52.164;10.530;2023-05-10T09:43:20;15.80;58.20
10245;DHT22;5167;52.164;10.530;2023-05-10T09:45:48;15.90;61.20
10245;DHT22;5167;52.164;10.530;2023-05-10T09:48:15;15.90;63.40
10245;DHT22;5167;52.164;10.530;2023-05-10T09:50:41;16.10;65.30
10245;DHT22;5167;52.164;10.530;2023-05-10T09:53:07;16.00;69.30
10245;DHT22;5167;52.164;10.530;2023-05-10T09:58:05;16.10;76.30
10245;DHT22;5167;52.164;10.530;2023-05-10T10:00:37;16.10;78.30
10245;DHT22;5167;52.164;10.530;2023-05-10T10:03:03;16.20;80.30
10245;DHT22;5167;52.164;10.530;2023-05-10T10:05:34;16.30;82.40
10245;DHT22;5167;52.164;10.530;2023-05-10T10:08:04;16.20;83.40
10245;DHT22;5167;52.164;10.530;2023-05-10T10:10:31;16.30;84.30
10245;DHT22;5167;52.164;10.530;2023-05-10T10:12:57;16.20;84.60
10245;DHT22;5167;52.164;10.530;2023-05-10T10:15:23;16.20;85.30
10245;DHT22;5167;52.164;10.530;2023-05-10T10:17:50;16.20;85.30
10245;DHT22;5167;52.164;10.530;2023-05-10T10:20:16;16.20;86.10
10245;DHT22;5167;52.164;10.530;2023-05-10T10:22:42;16.40;86.50
10245;DHT22;5167;52.164;10.530;2023-05-10T10:25:14;16.20;86.90
10245;DHT22;5167;52.164;10.530;2023-05-10T10:30:42;16.20;87.80
10245;DHT22;5167;52.164;10.530;2023-05-10T10:35:59;16.20;92.50
10245;DHT22;5167;52.164;10.530;2023-05-10T10:38:30;16.30;93.10
10245;DHT22;5167;52.164;10.530;2023-05-10T10:41:10;16.30;95.50
10245;DHT22;5167;52.164;10.530;2023-05-10T10:43:37;16.40;95.60
10245;DHT22;5167;52.164;10.530;2023-05-10T10:48:35;16.40;96.60
10245;DHT22;5167;52.164;10.530;2023-05-10T10:51:01;16.40;96.60
10245;DHT22;5167;52.164;10.530;2023-05-10T10:53:27;16.40;97.60
10245;DHT22;5167;52.164;10.530;2023-05-10T10:56:08;16.50;97.10
10245;DHT22;5167;52.164;10.530;2023-05-10T10:58:35;16.50;97.50
10245;DHT22;5167;52.164;10.530;2023-05-10T11:01:16;16.80;98.20
10245;DHT22;5167;52.164;10.530;2023-05-10T11:06:34;16.60;99.00
10245;DHT22;5167;52.164;10.530;2023-05-10T11:09:08;16.60;99.90
10245;DHT22;5167;52.164;10.530;2023-05-10T11:11:35;16.70;99.40
10245;DHT22;5167;52.164;10.530;2023-05-10T11:14:05;16.60;99.90
10245;DHT22;5167;52.164;10.530;2023-05-10T11:16:44;16.80;99.90
10245;DHT22;5167;52.164;10.530;2023-05-10T11:19:14;16.70;99.90
10245;DHT22;5167;52.164;10.530;2023-05-10T11:22:12;16.70;99.10
10245;DHT22;5167;52.164;10.530;2023-05-10T11:24:36;16.70;99.70
10245;DHT22;5167;52.164;10.530;2023-05-10T11:27:02;16.80;98.80
10245;DHT22;5167;52.164;10.530;2023-05-10T11:29:28;16.90;98.00
10245;DHT22;5167;52.164;10.530;2023-05-10T11:31:57;17.10;94.10
10245;DHT22;5167;52.164;10.530;2023-05-10T11:34:30;16.90;92.50
10245;DHT22;5167;52.164;10.530;2023-05-10T11:36:59;16.90;92.50
10245;DHT22;5167;52.164;10.530;2023-05-10T11:39:29;16.90;93.50
10245;DHT22;5167;52.164;10.530;2023-05-10T11:41:55;16.80;94.10
10245;DHT22;5167;52.164;10.530;2023-05-10T11:44:20;16.90;93.90
10245;DHT22;5167;52.164;10.530;2023-05-10T11:46:46;16.90;95.20
10245;DHT22;5167;52.164;10.530;2023-05-10T11:49:11;17.00;96.10
10245;DHT22;5167;52.164;10.530;2023-05-10T11:51:38;17.00;97.20
10245;DHT22;5167;52.164;10.530;2023-05-10T11:54:09;17.10;96.80
10245;DHT22;5167;52.164;10.530;2023-05-10T11:56:35;17.00;98.60
10245;DHT22;5167;52.164;10.530;2023-05-10T11:59:01;17.10;98.70
10245;DHT22;5167;52.164;10.530;2023-05-10T12:01:28;17.20;97.80
10245;DHT22;5167;52.164;10.530;2023-05-10T12:03:55;17.20;96.30
10245;DHT22;5167;52.164;10.530;2023-05-10T12:06:32;17.30;95.50
10245;DHT22;5167;52.164;10.530;2023-05-10T12:09:05;17.20;95.30
10245;DHT22;5167;52.164;10.530;2023-05-10T12:11:31;17.40;96.70
10245;DHT22;5167;52.164;10.530;2023-05-10T12:13:56;17.30;95.30
10245;DHT22;5167;52.164;10.530;2023-05-10T12:16:24;17.50;94.80
10245;DHT22;5167;52.164;10.530;2023-05-10T12:18:51;17.40;95.00
10245;DHT22;5167;52.164;10.530;2023-05-10T12:21:17;17.50;94.90
10245;DHT22;5167;52.164;10.530;2023-05-10T12:23:45;17.80;91.70
10245;DHT22;5167;52.164;10.530;2023-05-10T12:26:11;17.60;91.10
10245;DHT22;5167;52.164;10.530;2023-05-10T12:28:37;17.70;87.60
10245;DHT22;5167;52.164;10.530;2023-05-10T12:31:02;17.80;79.10
10245;DHT22;5167;52.164;10.530;2023-05-10T12:33:39;17.90;71.00
10245;DHT22;5167;52.164;10.530;2023-05-10T12:36:08;17.90;65.90
10245;DHT22;5167;52.164;10.530;2023-05-10T12:38:41;17.90;63.90
10245;DHT22;5167;52.164;10.530;2023-05-10T12:41:16;17.90;61.70
10245;DHT22;5167;52.164;10.530;2023-05-10T12:43:42;17.90;58.90
10245;DHT22;5167;52.164;10.530;2023-05-10T12:46:08;18.10;55.70
10245;DHT22;5167;52.164;10.530;2023-05-10T12:48:35;18.10;53.70
10245;DHT22;5167;52.164;10.530;2023-05-10T12:51:02;18.40;52.80
10245;DHT22;5167;52.164;10.530;2023-05-10T12:53:28;18.20;50.00
10245;DHT22;5167;52.164;10.530;2023-05-10T12:55:54;18.30;48.50
10245;DHT22;5167;52.164;10.530;2023-05-10T12:58:19;18.30;48.30
10245;DHT22;5167;52.164;10.530;2023-05-10T13:00:45;18.40;47.00
10245;DHT22;5167;52.164;10.530;2023-05-10T13:03:11;18.40;43.20
10245;DHT22;5167;52.164;10.530;2023-05-10T13:05:36;18.50;39.80
10245;DHT22;5167;52.164;10.530;2023-05-10T13:08:02;18.50;40.00
10245;DHT22;5167;52.164;10.530;2023-05-10T13:10:30;18.50;38.50
10245;DHT22;5167;52.164;10.530;2023-05-10T13:12:57;18.60;36.10
10245;DHT22;5167;52.164;10.530;2023-05-10T13:15:22;18.70;35.90
10245;DHT22;5167;52.164;10.530;2023-05-10T13:17:48;18.70;32.80
10245;DHT22;5167;52.164;10.530;2023-05-10T13:20:14;18.70;33.00
10245;DHT22;5167;52.164;10.530;2023-05-10T13:22:40;18.70;33.10
10245;DHT22;5167;52.164;10.530;2023-05-10T13:25:06;18.80;31.60
10245;DHT22;5167;52.164;10.530;2023-05-10T13:27:32;18.80;31.90
10245;DHT22;5167;52.164;10.530;2023-05-10T13:29:57;18.90;29.40
10245;DHT22;5167;52.164;10.530;2023-05-10T13:32:24;18.90;28.90
10245;DHT22;5167;52.164;10.530;2023-05-10T13:34:51;18.90;27.80
10245;DHT22;5167;52.164;10.530;2023-05-10T13:37:16;18.90;26.20
10245;DHT22;5167;52.164;10.530;2023-05-10T13:39:42;18.90;26.70
10245;DHT22;5167;52.164;10.530;2023-05-10T13:42:07;18.90;26.20
10245;DHT22;5167;52.164;10.530;2023-05-10T13:44:33;18.90;25.60
10245;DHT22;5167;52.164;10.530;2023-05-10T13:46:59;18.90;27.00
10245;DHT22;5167;52.164;10.530;2023-05-10T13:49:24;18.90;27.60
10245;DHT22;5167;52.164;10.530;2023-05-10T13:51:50;19.00;27.60
10245;DHT22;5167;52.164;10.530;2023-05-10T13:54:16;19.00;26.60
10245;DHT22;5167;52.164;10.530;2023-05-10T13:56:45;19.00;27.10
10245;DHT22;5167;52.164;10.530;2023-05-10T13:59:10;19.00;28.90
10245;DHT22;5167;52.164;10.530;2023-05-10T14:01:36;19.00;29.70
10245;DHT22;5167;52.164;10.530;2023-05-10T14:04:01;18.80;29.30
10245;DHT22;5167;52.164;10.530;2023-05-10T14:06:27;18.90;28.10
10245;DHT22;5167;52.164;10.530;2023-05-10T14:08:52;19.00;26.80
10245;DHT22;5167;52.164;10.530;2023-05-10T14:11:19;18.90;28.00
10245;DHT22;5167;52.164;10.530;2023-05-10T14:13:45;18.90;28.00
10245;DHT22;5167;52.164;10.530;2023-05-10T14:16:11;19.00;28.20
10245;DHT22;5167;52.164;10.530;2023-05-10T14:18:37;19.00;29.30
10245;DHT22;5167;52.164;10.530;2023-05-10T14:21:03;18.90;28.10
10245;DHT22;5167;52.164;10.530;2023-05-10T14:23:28;19.00;28.30
10245;DHT22;5167;52.164;10.530;2023-05-10T14:25:54;19.00;28.30
10245;DHT22;5167;52.164;10.530;2023-05-10T14:28:20;19.00;26.80
10245;DHT22;5167;52.164;10.530;2023-05-10T14:30:47;19.00;26.40
10245;DHT22;5167;52.164;10.530;2023-05-10T14:33:13;19.00;26.50
10245;DHT22;5167;52.164;10.530;2023-05-10T14:36:06;19.00;26.50
10245;DHT22;5167;52.164;10.530;2023-05-10T14:38:31;19.00;24.70
10245;DHT22;5167;52.164;10.530;2023-05-10T14:40:57;19.10;24.70
10245;DHT22;5167;52.164;10.530;2023-05-10T14:43:23;19.10;24.40
10245;DHT22;5167;52.164;10.530;2023-05-10T14:45:48;19.20;24.90
10245;DHT22;5167;52.164;10.530;2023-05-10T14:48:14;19.20;23.20
10245;DHT22;5167;52.164;10.530;2023-05-10T14:50:43;19.10;21.30
10245;DHT22;5167;52.164;10.530;2023-05-10T14:53:08;19.10;18.70
10245;DHT22;5167;52.164;10.530;2023-05-10T14:55:34;19.10;19.50
10245;DHT22;5167;52.164;10.530;2023-05-10T14:58:01;19.20;20.10
10245;DHT22;5167;52.164;10.530;2023-05-10T15:00:28;19.10;18.70
10245;DHT22;5167;52.164;10.530;2023-05-10T15:02:53;19.20;19.10
10245;DHT22;5167;52.164;10.530;2023-05-10T15:05:19;19.20;19.00
10245;DHT22;5167;52.164;10.530;2023-05-10T15:07:45;19.20;18.90
10245;DHT22;5167;52.164;10.530;2023-05-10T15:10:11;19.20;19.00
10245;DHT22;5167;52.164;10.530;2023-05-10T15:12:37;19.10;18.10
10245;DHT22;5167;52.164;10.530;2023-05-10T15:15:04;19.20;15.90
10245;DHT22;5167;52.164;10.530;2023-05-10T15:17:29;19.20;17.40
10245;DHT22;5167;52.164;10.530;2023-05-10T15:19:55;19.20;15.00
10245;DHT22;5167;52.164;10.530;2023-05-10T15:22:21;19.30;17.10
10245;DHT22;5167;52.164;10.530;2023-05-10T15:24:47;19.20;16.20
10245;DHT22;5167;52.164;10.530;2023-05-10T15:27:12;19.20;16.80
10245;DHT22;5167;52.164;10.530;2023-05-10T15:29:38;19.20;16.20
10245;DHT22;5167;52.164;10.530;2023-05-10T15:32:04;19.20;16.90
10245;DHT22;5167;52.164;10.530;2023-05-10T15:34:29;19.20;17.60
10245;DHT22;5167;52.164;10.530;2023-05-10T15:36:55;19.30;16.90
10245;DHT22;5167;52.164;10.530;2023-05-10T15:39:20;19.30;16.80
10245;DHT22;5167;52.164;10.530;2023-05-10T15:41:46;19.30;16.90
10245;DHT22;5167;52.164;10.530;2023-05-10T15:44:12;19.30;16.50
10245;DHT22;5167;52.164;10.530;2023-05-10T15:46:38;19.30;16.40
10245;DHT22;5167;52.164;10.530;2023-05-10T15:49:03;19.30;15.80
10245;DHT22;5167;52.164;10.530;2023-05-10T15:51:29;19.20;15.60
10245;DHT22;5167;52.164;10.530;2023-05-10T15:53:55;19.30;15.00
10245;DHT22;5167;52.164;10.530;2023-05-10T15:56:21;19.30;16.50
10245;DHT22;5167;52.164;10.530;2023-05-10T15:58:47;19.40;16.90
10245;DHT22;5167;52.164;10.530;2023-05-10T16:01:12;19.40;14.50
10245;DHT22;5167;52.164;10.530;2023-05-10T16:03:38;19.40;16.20
10245;DHT22;5167;52.164;10.530;2023-05-10T16:06:03;19.50;14.00
10245;DHT22;5167;52.164;10.530;2023-05-10T16:08:29;19.40;15.80
10245;DHT22;5167;52.164;10.530;2023-05-10T16:10:55;19.50;15.90
10245;DHT22;5167;52.164;10.530;2023-05-10T16:13:22;19.50;16.20
10245;DHT22;5167;52.164;10.530;2023-05-10T16:15:47;19.50;16.20
10245;DHT22;5167;52.164;10.530;2023-05-10T16:18:13;19.40;14.90
10245;DHT22;5167;52.164;10.530;2023-05-10T16:20:39;19.50;14.90
10245;DHT22;5167;52.164;10.530;2023-05-10T16:23:06;19.50;15.50
10245;DHT22;5167;52.164;10.530;2023-05-10T16:25:32;19.50;15.70